Time;durP1;ratioP1;P1;durP2;ratioP2;P2;SDS_P1;SDS_P2;PMS_P1;PMS_P2;Temp;Humidity;BMP_temperature;BMP_pressure;BME280_temperature;BME280_humidity;BME280_pressure;Samples;Min_cycle;Max_cycle;Signal;HPM_P1;HPM_P2
2023/01/09 00:00:15;;;;;;;;;;;;;;;6.08;100.00;99778.84;5568321;32;34251;-72
2023/01/09 00:03:22;;;;;;;;;;;;;;;6.15;100.00;99782.50;5568224;32;34785;-71
2023/01/09 00:06:27;;;;;;;;;;;;;;;6.35;100.00;99778.69;5568604;32;34669;-71
2023/01/09 00:09:35;;;;;;;;;;;;;;;6.33;100.00;99785.09;5568424;32;34822;-72
2023/01/09 00:12:41;;;;;;;;;;;;;;;6.27;100.00;99796.25;5568348;32;34221;-71
2023/01/09 00:15:49;;;;;;;;;;;;;;;6.42;100.00;99781.53;5568403;32;34902;-72
2023/01/09 00:18:55;;;;;;;;;;;;;;;6.35;100.00;99788.37;5568252;32;34742;-72
2023/01/09 00:22:05;;;;;;;;;;;;;;;6.37;100.00;99796.97;5568275;32;34340;-72
2023/01/09 00:25:12;;;;;;;;;;;;;;;6.35;100.00;99785.75;5568324;32;34075;-72
2023/01/09 00:28:20;;;;;;;;;;;;;;;6.26;100.00;99789.31;5554913;31;34403;-72
2023/01/09 00:31:25;;;;;;;;;;;;;;;6.15;100.00;99781.69;5554004;32;34867;-72
2023/01/09 00:34:36;;;;;;;;;;;;;;;6.07;100.00;99782.44;5554968;32;34662;-69
2023/01/09 00:37:45;;;;;;;;;;;;;;;6.12;100.00;99774.91;5568078;32;34233;-70
2023/01/09 00:40:55;;;;;;;;;;;;;;;6.20;100.00;99769.69;5555370;32;34155;-71
2023/01/09 00:44:11;;;;;;;;;;;;;;;6.36;100.00;99768.97;5568602;32;34352;-71
2023/01/09 00:47:25;;;;;;;;;;;;;;;6.33;100.00;99764.03;5568135;32;34843;-71
2023/01/09 00:50:33;;;;;;;;;;;;;;;6.46;100.00;99762.63;5554822;32;35001;-71
2023/01/09 00:53:42;;;;;;;;;;;;;;;6.35;100.00;99762.03;5554828;32;34774;-71
2023/01/09 00:56:49;;;;;;;;;;;;;;;6.29;100.00;99758.25;5554480;32;34491;-71
2023/01/09 00:59:55;;;;;;;;;;;;;;;6.32;100.00;99752.66;5568103;32;34132;-71
2023/01/09 01:03:01;;;;;;;;;;;;;;;6.31;100.00;99758.06;5567907;32;35076;-71
2023/01/09 01:09:35;;;;;;;;;;;;;;;6.29;100.00;99752.16;5567927;32;34386;-71
2023/01/09 01:12:44;;;;;;;;;;;;;;;6.25;100.00;99748.16;5568062;32;35058;-72
2023/01/09 01:15:53;;;;;;;;;;;;;;;6.24;100.00;99739.44;5567133;32;33917;-71
2023/01/09 01:19:02;;;;;;;;;;;;;;;6.23;100.00;99743.06;5567845;32;34249;-72
2023/01/09 01:22:09;;;;;;;;;;;;;;;6.21;100.00;99738.91;5567972;32;34226;-71
2023/01/09 01:25:16;;;;;;;;;;;;;;;6.22;100.00;99738.75;5567883;32;34559;-71
2023/01/09 01:28:22;;;;;;;;;;;;;;;6.29;100.00;99729.28;5554339;32;34838;-71
2023/01/09 01:31:28;;;;;;;;;;;;;;;6.45;100.00;99728.50;5554324;32;34257;-71
2023/01/09 01:34:34;;;;;;;;;;;;;;;6.44;100.00;99727.69;5567746;32;34285;-71
2023/01/09 01:37:40;;;;;;;;;;;;;;;6.48;100.00;99721.13;5554238;32;34331;-71
2023/01/09 01:40:51;;;;;;;;;;;;;;;6.64;100.00;99717.72;5554216;32;34895;-71
2023/01/09 01:43:57;;;;;;;;;;;;;;;6.72;100.00;99704.59;5554060;32;34001;-71
2023/01/09 01:47:03;;;;;;;;;;;;;;;6.88;100.00;99691.44;5567596;32;34100;-71
2023/01/09 01:50:12;;;;;;;;;;;;;;;6.96;100.00;99696.75;5567650;32;33897;-69
2023/01/09 01:53:21;;;;;;;;;;;;;;;7.07;100.00;99695.59;5553819;32;34988;-71
2023/01/09 01:56:29;;;;;;;;;;;;;;;7.09;100.00;99685.72;5567550;32;34143;-71
2023/01/09 01:59:39;;;;;;;;;;;;;;;7.15;100.00;99679.81;5567479;32;34620;-71
2023/01/09 02:02:46;;;;;;;;;;;;;;;7.19;100.00;99680.31;5554195;32;34169;-72
2023/01/09 02:05:52;;;;;;;;;;;;;;;7.11;100.00;99677.66;5553736;32;35069;-71
2023/01/09 02:08:57;;;;;;;;;;;;;;;7.10;100.00;99676.84;5567616;32;34251;-71
2023/01/09 02:12:15;;;;;;;;;;;;;;;7.09;100.00;99674.34;5553996;32;34913;-69
2023/01/09 02:15:22;;;;;;;;;;;;;;;7.13;100.00;99671.22;5553822;32;34288;-71
2023/01/09 02:18:40;;;;;;;;;;;;;;;7.12;100.00;99672.22;5540334;32;35198;-71
2023/01/09 02:22:04;;;;;;;;;;;;;;;7.11;100.00;99665.31;5566987;32;35046;-71
2023/01/09 02:25:18;;;;;;;;;;;;;;;7.24;100.00;99660.38;5566882;32;34234;-70
2023/01/09 02:28:25;;;;;;;;;;;;;;;7.19;100.00;99661.84;5568624;31;34015;-70
2023/01/09 02:31:47;;;;;;;;;;;;;;;7.17;100.00;99659.34;5555781;32;33775;-70
2023/01/09 02:35:12;;;;;;;;;;;;;;;7.19;100.00;99646.00;5569250;32;34274;-70
2023/01/09 02:38:23;;;;;;;;;;;;;;;7.25;100.00;99648.81;5555551;32;34547;-69
2023/01/09 02:41:32;;;;;;;;;;;;;;;7.46;100.00;99647.47;5569230;32;34035;-71
2023/01/09 02:44:41;;;;;;;;;;;;;;;7.55;100.00;99643.87;5555984;32;35117;-70
2023/01/09 02:47:48;;;;;;;;;;;;;;;7.58;100.00;99639.09;5569093;32;34281;-70
2023/01/09 02:51:02;;;;;;;;;;;;;;;7.62;100.00;99643.03;5569080;32;34373;-70
2023/01/09 02:54:22;;;;;;;;;;;;;;;7.62;100.00;99648.31;5569110;32;34280;-71
2023/01/09 02:57:28;;;;;;;;;;;;;;;7.68;100.00;99638.91;5555470;32;34297;-69
2023/01/09 03:00:40;;;;;;;;;;;;;;;7.70;100.00;99632.44;5554939;32;32968;-69
2023/01/09 03:04:09;;;;;;;;;;;;;;;7.73;100.00;99636.59;5569082;32;34278;-70
2023/01/09 03:07:17;;;;;;;;;;;;;;;7.69;100.00;99627.37;5569061;32;34025;-70
2023/01/09 03:10:29;;;;;;;;;;;;;;;7.67;100.00;99611.69;5568718;32;34630;-70
2023/01/09 03:13:51;;;;;;;;;;;;;;;7.69;100.00;99615.00;5555666;32;34350;-70
2023/01/09 03:17:02;;;;;;;;;;;;;;;7.67;100.00;99608.22;5568960;32;34918;-72
2023/01/09 03:20:09;;;;;;;;;;;;;;;7.57;100.00;99610.19;5555407;32;34372;-70
2023/01/09 03:23:16;;;;;;;;;;;;;;;7.48;100.00;99616.50;5568853;32;34105;-70
2023/01/09 03:26:22;;;;;;;;;;;;;;;7.49;100.00;99618.13;5568854;32;34902;-70
2023/01/09 03:29:30;;;;;;;;;;;;;;;7.42;100.00;99608.25;5568726;32;34300;-70
2023/01/09 03:32:37;;;;;;;;;;;;;;;7.43;100.00;99614.34;5568794;32;34822;-70
2023/01/09 03:35:47;;;;;;;;;;;;;;;7.39;100.00;99605.94;5568625;32;35717;-70
2023/01/09 03:38:54;;;;;;;;;;;;;;;7.40;100.00;99604.97;5568065;32;34245;-70
2023/01/09 03:42:05;;;;;;;;;;;;;;;7.40;100.00;99599.69;5568722;32;34502;-70
2023/01/09 03:45:10;;;;;;;;;;;;;;;7.44;100.00;99608.09;5568771;32;34107;-70
2023/01/09 03:48:18;;;;;;;;;;;;;;;7.42;100.00;99591.59;5568595;32;34402;-70
2023/01/09 03:51:26;;;;;;;;;;;;;;;7.47;100.00;99589.28;5555168;32;34316;-70
2023/01/09 03:54:32;;;;;;;;;;;;;;;7.52;100.00;99586.94;5555188;32;33970;-70
2023/01/09 03:57:39;;;;;;;;;;;;;;;7.45;100.00;99586.00;5541749;32;33960;-70
2023/01/09 04:00:48;;;;;;;;;;;;;;;7.45;100.00;99582.53;5568481;32;34242;-70
2023/01/09 04:03:56;;;;;;;;;;;;;;;7.36;100.00;99579.88;5554296;32;33841;-70
2023/01/09 04:07:06;;;;;;;;;;;;;;;7.43;100.00;99577.41;5554191;32;34456;-70
2023/01/09 04:10:12;;;;;;;;;;;;;;;7.38;100.00;99580.53;5568304;32;34020;-70
2023/01/09 04:13:19;;;;;;;;;;;;;;;7.38;100.00;99577.09;5541568;32;33204;-70
2023/01/09 04:16:27;;;;;;;;;;;;;;;7.43;100.00;99580.88;5568463;32;34172;-70
2023/01/09 04:19:34;;;;;;;;;;;;;;;7.40;100.00;99583.84;5555298;32;34952;-70
2023/01/09 04:22:41;;;;;;;;;;;;;;;7.46;100.00;99584.97;5568295;32;34997;-71
2023/01/09 04:25:47;;;;;;;;;;;;;;;7.50;100.00;99580.22;5568362;32;34238;-70
2023/01/09 04:28:57;;;;;;;;;;;;;;;7.50;100.00;99582.84;5568270;32;34844;-70
2023/01/09 04:32:03;;;;;;;;;;;;;;;7.49;100.00;99584.66;5554281;32;32886;-70
2023/01/09 04:35:10;;;;;;;;;;;;;;;7.49;100.00;99587.31;5568299;32;34617;-70
2023/01/09 04:38:18;;;;;;;;;;;;;;;7.50;100.00;99582.84;5554498;32;34189;-70
2023/01/09 04:44:54;;;;;;;;;;;;;;;7.53;100.00;99591.25;5568318;32;34334;-70
2023/01/09 04:48:02;;;;;;;;;;;;;;;7.55;100.00;99601.66;5554869;32;34880;-70
2023/01/09 04:51:08;;;;;;;;;;;;;;;7.48;100.00;99584.81;5566788;32;34788;-71
2023/01/09 04:54:17;;;;;;;;;;;;;;;7.32;100.00;99583.00;5554917;32;34155;-70
2023/01/09 04:57:23;;;;;;;;;;;;;;;7.27;100.00;99590.59;5554529;32;35038;-70
2023/01/09 05:00:30;;;;;;;;;;;;;;;7.12;100.00;99584.34;5567850;32;34938;-70
2023/01/09 05:03:36;;;;;;;;;;;;;;;7.11;100.00;99578.25;5567801;32;34384;-70
2023/01/09 05:06:45;;;;;;;;;;;;;;;7.11;100.00;99574.81;5567979;32;34351;-70
2023/01/09 05:09:53;;;;;;;;;;;;;;;7.02;100.00;99583.69;5553723;32;33583;-71
2023/01/09 05:13:03;;;;;;;;;;;;;;;7.13;100.00;99578.09;5568456;31;34723;-70
2023/01/09 05:16:09;;;;;;;;;;;;;;;7.23;100.00;99579.56;5567207;32;35037;-70
2023/01/09 05:19:20;;;;;;;;;;;;;;;7.25;100.00;99577.59;5567518;32;34299;-71
2023/01/09 05:22:28;;;;;;;;;;;;;;;7.24;100.00;99572.47;5567156;32;34737;-70
2023/01/09 05:25:35;;;;;;;;;;;;;;;7.23;100.00;99573.47;5541082;32;35587;-70
2023/01/09 05:28:42;;;;;;;;;;;;;;;7.32;100.00;99567.19;5567843;32;35099;-70
2023/01/09 05:31:51;;;;;;;;;;;;;;;7.30;100.00;99561.28;5567658;32;33859;-71
2023/01/09 05:34:59;;;;;;;;;;;;;;;7.24;100.00;99565.41;5567519;32;34689;-71
2023/01/09 05:38:07;;;;;;;;;;;;;;;7.24;100.00;99561.94;5552951;32;33053;-71
2023/01/09 05:41:12;;;;;;;;;;;;;;;7.21;100.00;99555.16;5567522;32;35393;-71
2023/01/09 05:44:19;;;;;;;;;;;;;;;7.17;100.00;99561.75;5567557;32;34324;-71
2023/01/09 05:47:26;;;;;;;;;;;;;;;7.21;100.00;99549.88;5567354;32;35293;-71
2023/01/09 05:50:31;;;;;;;;;;;;;;;7.11;100.00;99548.44;5566936;32;34271;-70
2023/01/09 05:53:41;;;;;;;;;;;;;;;7.10;100.00;99552.03;5567297;32;34799;-70
2023/01/09 05:56:48;;;;;;;;;;;;;;;7.03;100.00;99551.03;5554079;32;34907;-70
2023/01/09 05:59:53;;;;;;;;;;;;;;;7.01;100.00;99553.88;5553585;32;34263;-70
2023/01/09 06:02:59;;;;;;;;;;;;;;;7.04;100.00;99563.25;5552626;32;34047;-69
2023/01/09 06:06:03;;;;;;;;;;;;;;;7.05;100.00;99562.28;5553319;32;35526;-71
2023/01/09 06:09:06;;;;;;;;;;;;;;;7.05;100.00;99560.47;5567250;32;34761;-70
2023/01/09 06:12:10;;;;;;;;;;;;;;;7.09;100.00;99555.66;5553160;32;34025;-70
2023/01/09 06:15:15;;;;;;;;;;;;;;;7.15;100.00;99560.28;5540201;32;34049;-70
2023/01/09 06:18:21;;;;;;;;;;;;;;;7.14;100.00;99566.53;5566475;32;34236;-71
2023/01/09 06:21:25;;;;;;;;;;;;;;;7.23;100.00;99555.81;5566054;32;34971;-71
2023/01/09 06:24:30;;;;;;;;;;;;;;;7.24;100.00;99557.47;5552759;32;34198;-71
2023/01/09 06:27:37;;;;;;;;;;;;;;;7.23;100.00;99566.37;5566281;32;34553;-73
2023/01/09 06:30:41;;;;;;;;;;;;;;;7.33;100.00;99574.13;5566237;32;33614;-71
2023/01/09 06:33:45;;;;;;;;;;;;;;;7.30;100.00;99575.28;5538997;32;32995;-71
2023/01/09 06:36:51;;;;;;;;;;;;;;;7.42;100.00;99579.22;5564879;32;34479;-71
2023/01/09 06:39:56;;;;;;;;;;;;;;;7.45;100.00;99579.88;5565726;32;35267;-71
2023/01/09 06:43:00;;;;;;;;;;;;;;;7.65;100.00;99589.91;5565303;32;34320;-71
2023/01/09 06:46:06;;;;;;;;;;;;;;;7.60;100.00;99594.84;5566518;32;34901;-70
2023/01/09 06:49:11;;;;;;;;;;;;;;;7.51;100.00;99589.75;5565929;32;35022;-71
2023/01/09 06:52:15;;;;;;;;;;;;;;;7.41;100.00;99588.13;5565377;32;34329;-71
2023/01/09 06:55:20;;;;;;;;;;;;;;;7.41;100.00;99596.03;5565176;32;34826;-71
2023/01/09 06:58:24;;;;;;;;;;;;;;;7.45;100.00;99593.09;5551321;32;34234;-71
2023/01/09 07:01:29;;;;;;;;;;;;;;;7.43;100.00;99594.06;5550025;32;34578;-71
2023/01/09 07:04:33;;;;;;;;;;;;;;;7.40;100.00;99590.94;5550699;32;34575;-71
2023/01/09 07:07:38;;;;;;;;;;;;;;;7.37;100.00;99583.34;5560505;31;34757;-70
2023/01/09 07:10:43;;;;;;;;;;;;;;;7.39;100.00;99597.22;5550492;32;33976;-70
2023/01/09 07:13:48;;;;;;;;;;;;;;;7.33;100.00;99590.78;5538437;32;34225;-70
2023/01/09 07:16:51;;;;;;;;;;;;;;;7.30;100.00;99582.37;5551256;32;33853;-71
2023/01/09 07:19:55;;;;;;;;;;;;;;;7.34;100.00;99588.97;5563246;32;34243;-70
2023/01/09 07:22:59;;;;;;;;;;;;;;;7.33;100.00;99589.94;5539979;31;33018;-70
2023/01/09 07:26:03;;;;;;;;;;;;;;;7.29;100.00;99570.16;5552786;32;34875;-70
2023/01/09 07:29:07;;;;;;;;;;;;;;;7.35;100.00;99572.97;5540824;32;33477;-71
2023/01/09 07:32:11;;;;;;;;;;;;;;;7.33;100.00;99587.31;5566074;32;34278;-70
2023/01/09 07:35:14;;;;;;;;;;;;;;;7.33;100.00;99577.59;5553381;32;35351;-71
2023/01/09 07:38:19;;;;;;;;;;;;;;;7.33;100.00;99577.59;5565293;31;34287;-71
2023/01/09 07:41:24;;;;;;;;;;;;;;;7.32;100.00;99575.94;5539834;32;33289;-71
2023/01/09 07:44:29;;;;;;;;;;;;;;;7.35;100.00;99561.59;5565947;32;34728;-71
2023/01/09 07:47:32;;;;;;;;;;;;;;;7.39;100.00;99549.72;5568230;32;34290;-70
2023/01/09 07:50:36;;;;;;;;;;;;;;;7.46;100.00;99560.41;5566624;32;34434;-70
2023/01/09 07:53:41;;;;;;;;;;;;;;;7.45;100.00;99556.97;5567835;32;34027;-70
2023/01/09 07:56:47;;;;;;;;;;;;;;;7.34;100.00;99557.31;5568234;32;33933;-70
2023/01/09 07:59:51;;;;;;;;;;;;;;;7.27;100.00;99559.78;5568104;32;34749;-70
2023/01/09 08:02:56;;;;;;;;;;;;;;;7.34;100.00;99557.31;5541342;32;33181;-70
2023/01/09 08:06:01;;;;;;;;;;;;;;;7.13;100.00;99549.91;5553322;32;34937;-74
2023/01/09 08:09:07;;;;;;;;;;;;;;;7.09;100.00;99545.13;5568213;32;34836;-72
2023/01/09 08:12:11;;;;;;;;;;;;;;;7.14;100.00;99548.91;5568276;32;33918;-71
2023/01/09 08:15:17;;;;;;;;;;;;;;;7.07;100.00;99547.12;5541540;32;35510;-71
2023/01/09 08:18:20;;;;;;;;;;;;;;;7.05;100.00;99552.53;5568070;32;34666;-70
2023/01/09 08:21:23;;;;;;;;;;;;;;;7.07;100.00;99552.37;5554144;32;35513;-70
2023/01/09 08:24:31;;;;;;;;;;;;;;;7.02;100.00;99549.44;5541445;32;32527;-71
2023/01/09 08:27:34;;;;;;;;;;;;;;;6.93;100.00;99540.66;5568021;32;34877;-72
2023/01/09 08:30:39;;;;;;;;;;;;;;;6.78;100.00;99523.84;5567713;32;33939;-72
2023/01/09 08:33:44;;;;;;;;;;;;;;;6.67;100.00;99534.75;5553673;32;32873;-73
2023/01/09 08:36:48;;;;;;;;;;;;;;;6.51;100.00;99551.34;5567596;32;34245;-72
2023/01/09 08:39:52;;;;;;;;;;;;;;;6.34;100.00;99581.28;5567070;32;33944;-73
2023/01/09 08:49:42;;;;;;;;;;;;;;;6.05;100.00;99545.59;5566772;32;34401;-74
2023/01/09 08:52:46;;;;;;;;;;;;;;;6.04;100.00;99554.50;5566994;32;35084;-72
2023/01/09 08:55:51;;;;;;;;;;;;;;;6.08;100.00;99555.84;5555996;32;34156;-73
2023/01/09 08:58:55;;;;;;;;;;;;;;;5.98;100.00;99563.03;5567864;32;34130;-74
2023/01/09 09:02:00;;;;;;;;;;;;;;;5.88;100.00;99562.34;5540942;32;33848;-72
2023/01/09 09:05:05;;;;;;;;;;;;;;;5.80;100.00;99562.28;5567616;32;34503;-73
2023/01/09 09:08:11;;;;;;;;;;;;;;;5.81;100.00;99560.47;5554536;32;34684;-73
2023/01/09 09:11:16;;;;;;;;;;;;;;;5.70;100.00;99548.41;5553465;32;32996;-73
2023/01/09 09:17:48;;;;;;;;;;;;;;;5.59;100.00;99525.81;5567538;32;34351;-74
2023/01/09 09:20:51;;;;;;;;;;;;;;;5.65;100.00;99524.38;5552097;32;34504;-73
2023/01/09 09:23:56;;;;;;;;;;;;;;;5.57;100.00;99517.25;5553717;32;34485;-72
2023/01/09 09:27:00;;;;;;;;;;;;;;;5.58;100.00;99505.75;5540743;32;33022;-72
2023/01/09 09:30:04;;;;;;;;;;;;;;;5.64;100.00;99517.44;5553400;32;32653;-72
2023/01/09 09:33:09;;;;;;;;;;;;;;;5.66;100.00;99515.50;5567562;32;34212;-72
2023/01/09 09:36:12;;;;;;;;;;;;;;;5.61;100.00;99508.06;5552707;32;32993;-72
2023/01/09 09:39:15;;;;;;;;;;;;;;;5.61;100.00;99502.81;5567484;32;34964;-72
2023/01/09 09:45:53;;;;;;;;;;;;;;;5.66;100.00;99499.72;5567181;32;34437;-72
2023/01/09 09:49:00;;;;;;;;;;;;;;;5.63;100.00;99495.56;5567376;32;34263;-72
2023/01/09 09:52:12;;;;;;;;;;;;;;;5.63;100.00;99500.84;5553520;32;34152;-73
2023/01/09 09:55:24;;;;;;;;;;;;;;;5.64;100.00;99491.97;5553573;32;34293;-73
2023/01/09 09:58:37;;;;;;;;;;;;;;;5.76;100.00;99491.69;5567352;32;34130;-73
2023/01/09 10:02:02;;;;;;;;;;;;;;;5.61;100.00;99476.50;5567161;32;34736;-72
2023/01/09 10:05:14;;;;;;;;;;;;;;;5.53;100.00;99484.34;5540490;32;34388;-72
2023/01/09 10:08:37;;;;;;;;;;;;;;;5.44;100.00;99487.91;5552134;32;33863;-72
2023/01/09 10:11:47;;;;;;;;;;;;;;;5.38;100.00;99496.44;5565620;32;34327;-72
2023/01/09 10:14:51;;;;;;;;;;;;;;;5.32;100.00;99478.66;5553266;32;34879;-72
2023/01/09 10:18:04;;;;;;;;;;;;;;;5.37;100.00;99468.50;5539796;32;32974;-72
2023/01/09 10:21:18;;;;;;;;;;;;;;;5.38;100.00;99478.00;5535295;32;33829;-73
2023/01/09 10:24:41;;;;;;;;;;;;;;;5.35;100.00;99478.34;5552933;32;33568;-73
2023/01/09 10:28:03;;;;;;;;;;;;;;;5.39;100.00;99473.59;5566603;32;34309;-72
2023/01/09 10:31:21;;;;;;;;;;;;;;;5.30;100.00;99474.53;5552605;32;34161;-72
2023/01/09 10:34:25;;;;;;;;;;;;;;;5.28;100.00;99460.72;5566464;32;34935;-73
2023/01/09 10:37:30;;;;;;;;;;;;;;;5.25;100.00;99462.66;5562376;32;34186;-72
2023/01/09 10:40:39;;;;;;;;;;;;;;;5.28;100.00;99452.84;5556001;32;34404;-72
2023/01/09 10:43:50;;;;;;;;;;;;;;;5.25;100.00;99449.53;5552523;32;34894;-72
2023/01/09 10:46:54;;;;;;;;;;;;;;;5.22;100.00;99449.84;5553105;32;34484;-72
2023/01/09 10:50:01;;;;;;;;;;;;;;;5.33;100.00;99442.63;5555377;32;34204;-73
2023/01/09 10:53:19;;;;;;;;;;;;;;;5.34;100.00;99447.75;5568947;32;35018;-73
2023/01/09 10:56:25;;;;;;;;;;;;;;;5.33;100.00;99443.47;5554707;32;34812;-73
2023/01/09 10:59:29;;;;;;;;;;;;;;;5.33;100.00;99446.09;5568314;32;34303;-73
2023/01/09 11:02:35;;;;;;;;;;;;;;;5.35;100.00;99430.16;5555452;32;34691;-74
2023/01/09 11:05:40;;;;;;;;;;;;;;;5.35;100.00;99417.03;5542085;32;34326;-73
2023/01/09 11:08:49;;;;;;;;;;;;;;;5.23;100.00;99425.19;5568910;32;34298;-73
2023/01/09 11:11:54;;;;;;;;;;;;;;;5.31;100.00;99419.16;5554805;32;33029;-74
2023/01/09 11:15:27;;;;;;;;;;;;;;;5.24;100.00;99405.81;5554440;32;34352;-73
2023/01/09 11:18:37;;;;;;;;;;;;;;;5.36;100.00;99401.09;5537397;32;34361;-73
2023/01/09 11:21:43;;;;;;;;;;;;;;;5.39;100.00;99389.41;5568440;32;34209;-73
2023/01/09 11:24:58;;;;;;;;;;;;;;;5.37;100.00;99386.97;5554130;32;35294;-73
2023/01/09 11:28:07;;;;;;;;;;;;;;;5.37;100.00;99386.97;5554119;32;33423;-74
2023/01/09 11:31:23;;;;;;;;;;;;;;;5.43;100.00;99388.94;5568329;32;35045;-72
2023/01/09 11:34:30;;;;;;;;;;;;;;;5.47;100.00;99394.72;5553999;32;34249;-73
2023/01/09 11:37:33;;;;;;;;;;;;;;;5.70;100.00;99385.25;5567319;32;34203;-73
2023/01/09 11:40:46;;;;;;;;;;;;;;;5.72;100.00;99385.06;5550957;32;33030;-74
2023/01/09 11:43:50;;;;;;;;;;;;;;;5.65;100.00;99390.19;5558879;32;33373;-73
2023/01/09 11:46:54;;;;;;;;;;;;;;;5.63;100.00;99385.06;5567630;31;34323;-73
2023/01/09 11:50:27;;;;;;;;;;;;;;;5.57;100.00;99383.06;5566017;32;34615;-74
2023/01/09 11:54:05;;;;;;;;;;;;;;;5.49;100.00;99384.84;5543227;32;33662;-74
2023/01/09 11:57:10;;;;;;;;;;;;;;;5.45;100.00;99378.28;5540852;31;34089;-74
2023/01/09 12:00:20;;;;;;;;;;;;;;;5.65;100.00;99383.09;5579552;31;34255;-74
2023/01/09 12:03:46;;;;;;;;;;;;;;;5.67;100.00;99377.66;5567965;32;34557;-74
2023/01/09 12:06:59;;;;;;;;;;;;;;;5.54;100.00;99378.13;5567585;32;34329;-73
2023/01/09 12:10:29;;;;;;;;;;;;;;;5.50;100.00;99376.81;5568637;32;34019;-74
2023/01/09 12:13:39;;;;;;;;;;;;;;;5.50;100.00;99365.47;5568488;32;33853;-74
2023/01/09 12:17:01;;;;;;;;;;;;;;;5.53;100.00;99359.88;5566879;32;34915;-75
2023/01/09 12:20:23;;;;;;;;;;;;;;;5.71;100.00;99350.06;5553523;32;33424;-74
2023/01/09 12:23:46;;;;;;;;;;;;;;;5.72;100.00;99343.78;5566705;32;32565;-74
2023/01/09 12:27:11;;;;;;;;;;;;;;;5.78;100.00;99340.53;5567846;32;34313;-73
2023/01/09 12:30:18;;;;;;;;;;;;;;;5.80;100.00;99348.28;5566912;32;34922;-74
2023/01/09 12:33:25;;;;;;;;;;;;;;;5.87;100.00;99352.75;5567236;32;32723;-74
2023/01/09 12:36:36;;;;;;;;;;;;;;;5.92;100.00;99357.50;5567802;32;34519;-74
2023/01/09 12:39:58;;;;;;;;;;;;;;;5.96;100.00;99348.28;5567095;32;34188;-74
2023/01/09 12:43:08;;;;;;;;;;;;;;;5.93;100.00;99346.81;5554024;32;33916;-75
2023/01/09 12:46:17;;;;;;;;;;;;;;;5.87;100.00;99346.66;5567935;32;33096;-73
2023/01/09 12:49:20;;;;;;;;;;;;;;;5.91;100.00;99326.91;5567432;32;34625;-73
2023/01/09 12:52:24;;;;;;;;;;;;;;;5.94;100.00;99323.97;5553986;32;33284;-73
2023/01/09 12:55:37;;;;;;;;;;;;;;;6.00;100.00;99323.31;5554619;32;33398;-72
2023/01/09 12:58:46;;;;;;;;;;;;;;;5.98;100.00;99312.12;5567245;32;34078;-72
2023/01/09 13:01:51;;;;;;;;;;;;;;;5.95;100.00;99315.91;5567595;32;34397;-71
2023/01/09 13:05:14;;;;;;;;;;;;;;;5.98;100.00;99312.94;5553314;32;34002;-72
2023/01/09 13:08:37;;;;;;;;;;;;;;;5.94;100.00;99303.72;5553856;32;34779;-72
2023/01/09 13:11:44;;;;;;;;;;;;;;;5.90;100.00;99309.50;5565179;32;34304;-73
2023/01/09 13:14:51;;;;;;;;;;;;;;;5.82;100.00;99310.25;5567871;32;34408;-73
2023/01/09 13:18:13;;;;;;;;;;;;;;;5.88;100.00;99311.44;5555244;32;34923;-72
2023/01/09 13:21:18;;;;;;;;;;;;;;;5.86;100.00;99302.84;5563262;32;34314;-72
2023/01/09 13:24:37;;;;;;;;;;;;;;;5.85;100.00;99296.78;5565595;32;33928;-72
2023/01/09 13:27:48;;;;;;;;;;;;;;;5.85;100.00;99307.31;5553704;32;32980;-72
2023/01/09 13:30:56;;;;;;;;;;;;;;;5.87;100.00;99302.72;5553099;32;34465;-73
2023/01/09 13:34:02;;;;;;;;;;;;;;;5.89;100.00;99308.66;5552829;32;34189;-73
2023/01/09 13:37:19;;;;;;;;;;;;;;;5.83;100.00;99306.66;5567305;32;34369;-72
2023/01/09 13:40:26;;;;;;;;;;;;;;;5.92;100.00;99307.50;5567727;32;34448;-73
2023/01/09 13:43:50;;;;;;;;;;;;;;;6.02;100.00;99308.16;5566594;32;33048;-72
2023/01/09 13:46:56;;;;;;;;;;;;;;;5.91;100.00;99319.00;5566097;32;33326;-73
2023/01/09 13:50:04;;;;;;;;;;;;;;;5.83;100.00;99317.19;5555685;32;34968;-72
2023/01/09 13:53:26;;;;;;;;;;;;;;;5.85;100.00;99311.75;5551178;32;33616;-72
2023/01/09 13:56:30;;;;;;;;;;;;;;;5.90;100.00;99312.94;5554859;32;33505;-71
2023/01/09 13:59:35;;;;;;;;;;;;;;;5.88;100.00;99317.53;5554941;32;33112;-71
2023/01/09 14:02:45;;;;;;;;;;;;;;;5.90;100.00;99317.38;5567085;32;33886;-72
2023/01/09 14:05:50;;;;;;;;;;;;;;;5.89;100.00;99315.72;5567351;32;34148;-71
2023/01/09 14:09:07;;;;;;;;;;;;;;;5.90;100.00;99318.22;5566189;32;34199;-73
2023/01/09 14:12:12;;;;;;;;;;;;;;;5.94;100.00;99334.50;5546375;32;34339;-70
2023/01/09 14:15:38;;;;;;;;;;;;;;;5.87;100.00;99336.13;5534183;32;32972;-72
2023/01/09 14:18:56;;;;;;;;;;;;;;;5.84;100.00;99328.53;5533968;32;34133;-73
2023/01/09 14:22:01;;;;;;;;;;;;;;;5.84;100.00;99324.09;5521681;32;33067;-72
2023/01/09 14:25:08;;;;;;;;;;;;;;;5.81;100.00;99313.88;5539537;32;33030;-73
2023/01/09 14:28:18;;;;;;;;;;;;;;;5.85;100.00;99317.84;5553637;32;34830;-73
2023/01/09 14:31:27;;;;;;;;;;;;;;;5.93;100.00;99319.69;5539851;32;33383;-73
2023/01/09 14:34:36;;;;;;;;;;;;;;;5.88;100.00;99311.44;5526742;32;33592;-73
2023/01/09 14:37:41;;;;;;;;;;;;;;;5.88;100.00;99321.97;5540005;32;34282;-72
2023/01/09 14:40:48;;;;;;;;;;;;;;;5.89;100.00;99316.56;5539898;32;34284;-73
2023/01/09 14:44:05;;;;;;;;;;;;;;;6.02;100.00;99313.44;5553697;32;34687;-72
2023/01/09 14:47:15;;;;;;;;;;;;;;;5.93;100.00;99309.16;5553042;32;33799;-73
2023/01/09 14:50:20;;;;;;;;;;;;;;;5.87;100.00;99307.16;5523683;32;32936;-73
2023/01/09 14:53:28;;;;;;;;;;;;;;;5.86;100.00;99298.41;5533963;32;34217;-72
2023/01/09 14:56:35;;;;;;;;;;;;;;;5.81;100.00;99302.56;5546013;32;34930;-73
2023/01/09 14:59:53;;;;;;;;;;;;;;;5.80;100.00;99295.62;5537509;32;33486;-73
2023/01/09 15:03:02;;;;;;;;;;;;;;;5.85;100.00;99301.22;5535746;32;34281;-72
2023/01/09 15:06:14;;;;;;;;;;;;;;;5.76;100.00;99307.47;5532571;32;32973;-74
2023/01/09 15:09:23;;;;;;;;;;;;;;;5.76;100.00;99310.09;5532025;32;34424;-74
2023/01/09 15:12:30;;;;;;;;;;;;;;;5.77;100.00;99311.72;5545502;32;33108;-74
2023/01/09 15:15:37;;;;;;;;;;;;;;;5.97;100.00;99313.91;5552428;32;34429;-74
2023/01/09 15:18:47;;;;;;;;;;;;;;;5.80;100.00;99306.97;5551670;32;33052;-74
2023/01/09 15:21:57;;;;;;;;;;;;;;;5.83;100.00;99311.91;5551671;32;34126;-75
2023/01/09 15:25:22;;;;;;;;;;;;;;;5.80;100.00;99312.25;5551174;32;33537;-74
2023/01/09 15:28:42;;;;;;;;;;;;;;;5.76;100.00;99316.16;5550847;32;32860;-74
2023/01/09 15:31:51;;;;;;;;;;;;;;;5.75;100.00;99316.34;5538736;32;35548;-74
2023/01/09 15:34:58;;;;;;;;;;;;;;;5.78;100.00;99314.22;5550417;32;32857;-75
2023/01/09 15:38:02;;;;;;;;;;;;;;;5.74;100.00;99317.34;5566684;32;35571;-75
2023/01/09 15:41:10;;;;;;;;;;;;;;;5.67;100.00;99322.41;5554415;32;33076;-75
2023/01/09 15:44:18;;;;;;;;;;;;;;;5.66;100.00;99320.78;5543103;32;33199;-74
2023/01/09 15:47:26;;;;;;;;;;;;;;;5.74;100.00;99317.34;5537380;32;34006;-75
2023/01/09 15:50:31;;;;;;;;;;;;;;;5.67;100.00;99309.25;5550172;32;34996;-74
2023/01/09 15:53:39;;;;;;;;;;;;;;;5.53;100.00;99307.25;5547505;32;32856;-74
2023/01/09 15:56:46;;;;;;;;;;;;;;;5.56;100.00;99307.78;5547442;32;34784;-74
2023/01/09 15:59:55;;;;;;;;;;;;;;;5.54;100.00;99299.22;5547890;32;33953;-75
2023/01/09 16:03:10;;;;;;;;;;;;;;;5.52;100.00;99298.53;5547971;32;33916;-74
2023/01/09 16:06:20;;;;;;;;;;;;;;;5.56;100.00;99289.38;5549123;32;34236;-76
2023/01/09 16:09:27;;;;;;;;;;;;;;;5.48;100.00;99283.25;5554334;32;33318;-76
2023/01/09 16:12:34;;;;;;;;;;;;;;;5.45;100.00;99276.50;5548444;32;34104;-75
2023/01/09 16:15:42;;;;;;;;;;;;;;;5.48;100.00;99272.72;5554023;32;33027;-75
2023/01/09 16:18:51;;;;;;;;;;;;;;;5.45;100.00;99276.50;5554196;32;33337;-77
2023/01/09 16:22:00;;;;;;;;;;;;;;;5.45;100.00;99271.25;5568151;32;34879;-75
2023/01/09 16:25:24;;;;;;;;;;;;;;;5.43;100.00;99264.50;5555003;32;34180;-76
2023/01/09 16:28:32;;;;;;;;;;;;;;;5.45;100.00;99266.00;5547197;32;34344;-76
2023/01/09 16:31:38;;;;;;;;;;;;;;;5.41;100.00;99267.31;5535173;32;33157;-75
2023/01/09 16:34:51;;;;;;;;;;;;;;;5.42;100.00;99274.19;5547929;32;33035;-76
2023/01/09 16:37:59;;;;;;;;;;;;;;;5.43;100.00;99270.59;5553298;32;34370;-76
2023/01/09 16:44:39;;;;;;;;;;;;;;;5.48;100.00;99270.91;5554319;32;33195;-75
2023/01/09 16:47:48;;;;;;;;;;;;;;;5.48;100.00;99264.84;5567921;32;34001;-75